createdAt,value
2023-05-07T00:00:56.060Z,2.30
2023-05-07T00:03:24.634Z,2.13
2023-05-07T00:05:54.106Z,2.20
2023-05-07T00:08:22.685Z,2.30
2023-05-07T00:10:51.034Z,1.77
2023-05-07T00:13:19.407Z,2.08
2023-05-07T00:15:49.257Z,1.98
2023-05-07T00:18:17.655Z,2.20
2023-05-07T00:20:46.028Z,2.50
2023-05-07T00:23:14.400Z,1.85
2023-05-07T00:25:42.884Z,1.92
2023-05-07T00:28:11.386Z,2.30
2023-05-07T00:30:39.770Z,2.17
2023-05-07T00:33:09.666Z,2.00
2023-05-07T00:35:38.136Z,2.13
2023-05-07T00:38:06.486Z,1.90
2023-05-07T00:40:34.835Z,2.08
2023-05-07T00:43:03.353Z,2.28
2023-05-07T00:45:31.986Z,2.20
2023-05-07T00:48:01.515Z,2.33
2023-05-07T00:50:31.908Z,1.90
2023-05-07T00:53:01.259Z,2.30
2023-05-07T00:55:29.751Z,2.15
2023-05-07T00:57:58.312Z,2.40
2023-05-07T01:00:26.730Z,2.28
2023-05-07T01:02:55.179Z,2.40
2023-05-07T01:05:25.884Z,2.20
2023-05-07T01:07:56.678Z,2.22
2023-05-07T01:10:25.588Z,2.22
2023-05-07T01:12:54.526Z,2.13
2023-05-07T01:15:23.104Z,2.10
2023-05-07T01:17:51.653Z,2.65
2023-05-07T01:20:26.996Z,2.40
2023-05-07T01:22:59.844Z,2.20
2023-05-07T01:25:28.372Z,2.42
2023-05-07T01:28:02.144Z,2.60
2023-05-07T01:30:33.329Z,2.55
2023-05-07T01:33:06.407Z,2.38
2023-05-07T01:35:36.876Z,3.05
2023-05-07T01:38:07.099Z,2.50
2023-05-07T01:40:36.288Z,2.60
2023-05-07T01:43:05.014Z,2.47
2023-05-07T01:45:35.302Z,2.83
2023-05-07T01:48:04.501Z,2.20
2023-05-07T01:50:33.439Z,2.47
2023-05-07T01:53:01.920Z,2.50
2023-05-07T01:55:32.459Z,2.30
2023-05-07T01:58:01.002Z,2.80
2023-05-07T02:00:29.843Z,3.00
2023-05-07T02:02:58.290Z,2.67
2023-05-07T02:05:38.050Z,3.17
2023-05-07T02:08:13.606Z,2.35
2023-05-07T02:10:43.555Z,2.45
2023-05-07T02:13:12.201Z,2.22
2023-05-07T02:15:40.784Z,2.70
2023-05-07T02:18:10.801Z,2.60
2023-05-07T02:20:39.826Z,2.25
2023-05-07T02:23:08.206Z,2.20
2023-05-07T02:25:36.665Z,2.50
2023-05-07T02:28:06.477Z,2.80
2023-05-07T02:30:43.878Z,2.75
2023-05-07T02:33:13.596Z,3.00
2023-05-07T02:35:42.520Z,2.47
2023-05-07T02:38:12.190Z,2.67
2023-05-07T02:40:41.695Z,2.75
2023-05-07T02:43:11.584Z,2.30
2023-05-07T02:45:44.180Z,2.30
2023-05-07T02:48:13.242Z,2.70
2023-05-07T02:50:42.033Z,2.70
2023-05-07T02:53:10.607Z,2.42
2023-05-07T02:55:39.240Z,2.63
2023-05-07T02:58:07.550Z,2.22
2023-05-07T03:00:39.778Z,2.83
2023-05-07T03:03:24.225Z,2.33
2023-05-07T03:05:52.639Z,2.83
2023-05-07T03:08:20.965Z,2.88
2023-05-07T03:10:49.601Z,2.40
2023-05-07T03:13:18.062Z,2.40
2023-05-07T03:15:47.835Z,2.33
2023-05-07T03:18:16.457Z,2.30
2023-05-07T03:20:45.017Z,2.10
2023-05-07T03:23:13.484Z,2.20
2023-05-07T03:25:41.863Z,2.53
2023-05-07T03:28:10.363Z,2.40
2023-05-07T03:30:44.483Z,2.50
2023-05-07T03:33:14.188Z,2.47
2023-05-07T03:35:42.898Z,2.88
2023-05-07T03:38:12.369Z,2.53
2023-05-07T03:40:40.806Z,2.47
2023-05-07T03:43:09.346Z,2.78
2023-05-07T03:45:41.056Z,2.70
2023-05-07T03:48:15.887Z,2.50
2023-05-07T03:50:45.012Z,2.50
2023-05-07T03:53:13.522Z,2.50
2023-05-07T03:55:42.000Z,2.65
2023-05-07T03:58:10.359Z,2.30
2023-05-07T04:00:41.500Z,2.55
2023-05-07T04:03:32.133Z,2.17
2023-05-07T04:06:02.059Z,2.10
2023-05-07T04:08:30.527Z,2.40
2023-05-07T04:10:59.170Z,2.70
2023-05-07T04:13:32.124Z,2.53
2023-05-07T04:16:03.827Z,2.35
2023-05-07T04:18:33.757Z,2.20
2023-05-07T04:21:02.623Z,2.38
2023-05-07T04:23:31.036Z,2.30
2023-05-07T04:26:02.819Z,2.55
2023-05-07T04:28:36.713Z,2.40
2023-05-07T04:31:05.199Z,2.50
2023-05-07T04:33:36.587Z,2.55
2023-05-07T04:36:06.500Z,2.40
2023-05-07T04:38:40.625Z,2.47
2023-05-07T04:41:09.769Z,3.45
2023-05-07T04:43:42.631Z,2.28
2023-05-07T04:46:11.828Z,2.47
2023-05-07T04:48:41.676Z,2.53
2023-05-07T04:51:10.219Z,2.40
2023-05-07T04:53:38.701Z,2.63
2023-05-07T04:56:07.245Z,2.45
2023-05-07T04:58:41.881Z,2.50
2023-05-07T05:01:11.591Z,2.55
2023-05-07T05:03:42.341Z,2.47
2023-05-07T05:06:10.870Z,2.65
2023-05-07T05:08:39.283Z,2.80
2023-05-07T05:11:07.695Z,2.45
2023-05-07T05:13:38.137Z,3.00
2023-05-07T05:16:14.685Z,2.72
2023-05-07T05:18:44.788Z,2.65
2023-05-07T05:21:15.603Z,3.22
2023-05-07T05:23:45.973Z,3.22
2023-05-07T05:26:15.354Z,2.67
2023-05-07T05:28:43.803Z,2.60
2023-05-07T05:31:13.237Z,2.78
2023-05-07T05:33:41.839Z,2.83
2023-05-07T05:36:14.015Z,2.35
2023-05-07T05:38:43.906Z,2.67
2023-05-07T05:41:13.464Z,2.90
2023-05-07T05:43:41.785Z,2.75
2023-05-07T05:46:12.606Z,2.92
2023-05-07T05:48:40.967Z,2.80
2023-05-07T05:51:10.057Z,3.17
2023-05-07T05:53:39.777Z,2.75
2023-05-07T05:56:09.068Z,2.92
2023-05-07T05:58:38.515Z,3.10
2023-05-07T06:01:09.081Z,2.85
2023-05-07T06:03:38.999Z,3.00
2023-05-07T06:06:13.220Z,3.03
2023-05-07T06:08:43.113Z,3.20
2023-05-07T06:11:13.216Z,3.20
2023-05-07T06:13:44.152Z,2.90
2023-05-07T06:16:13.622Z,3.33
2023-05-07T06:18:42.379Z,3.38
2023-05-07T06:21:10.910Z,3.00
2023-05-07T06:23:41.820Z,2.92
2023-05-07T06:26:13.833Z,2.90
2023-05-07T06:28:46.839Z,3.05
2023-05-07T06:31:17.119Z,3.20
2023-05-07T06:33:52.149Z,3.22
2023-05-07T06:36:21.513Z,3.10
2023-05-07T06:38:50.077Z,3.28
2023-05-07T06:41:22.552Z,3.47
2023-05-07T06:43:51.322Z,3.15
2023-05-07T06:46:34.369Z,3.20
2023-05-07T06:49:02.813Z,3.00
2023-05-07T06:51:31.609Z,2.92
2023-05-07T06:54:05.310Z,3.58
2023-05-07T06:56:45.266Z,3.63
2023-05-07T06:59:13.578Z,3.30
2023-05-07T07:01:43.320Z,3.13
2023-05-07T07:04:14.984Z,3.47
2023-05-07T07:06:46.233Z,3.30
2023-05-07T07:09:16.833Z,3.83
2023-05-07T07:11:46.677Z,3.60
2023-05-07T07:14:15.379Z,3.28
2023-05-07T07:16:52.168Z,3.75
2023-05-07T07:19:25.986Z,3.35
2023-05-07T07:24:51.985Z,3.85
2023-05-07T07:27:22.030Z,3.28
2023-05-07T07:29:54.106Z,3.60
2023-05-07T07:32:22.822Z,3.50
2023-05-07T07:34:52.908Z,3.30
2023-05-07T07:37:21.365Z,3.10
2023-05-07T07:39:55.929Z,2.90
2023-05-07T07:42:25.967Z,3.50
2023-05-07T07:44:54.894Z,3.13
2023-05-07T07:47:29.528Z,3.40
2023-05-07T07:49:58.078Z,2.80
2023-05-07T07:52:26.736Z,3.08
2023-05-07T07:54:55.289Z,3.50
2023-05-07T07:57:25.842Z,3.55
2023-05-07T07:59:54.360Z,3.97
2023-05-07T08:02:23.121Z,3.20
2023-05-07T08:04:52.611Z,3.63
2023-05-07T08:07:25.934Z,3.95
2023-05-07T08:09:54.900Z,3.95
2023-05-07T08:12:27.273Z,3.80
2023-05-07T08:14:56.046Z,3.90
2023-05-07T08:17:24.641Z,3.80
2023-05-07T08:19:53.230Z,3.80
2023-05-07T08:22:22.850Z,4.00
2023-05-07T08:24:54.339Z,4.00
2023-05-07T08:27:22.758Z,3.83
2023-05-07T08:29:52.455Z,3.50
2023-05-07T08:32:22.539Z,4.00
2023-05-07T08:34:52.245Z,3.85
2023-05-07T08:37:32.085Z,3.70
2023-05-07T08:40:11.481Z,4.40
2023-05-07T08:42:56.907Z,4.05
2023-05-07T08:45:57.930Z,3.90
2023-05-07T08:48:36.635Z,3.75
2023-05-07T08:51:25.414Z,4.25
2023-05-07T08:54:12.518Z,4.00
2023-05-07T08:56:52.053Z,3.80
2023-05-07T08:59:40.090Z,4.55
2023-05-07T09:02:22.458Z,4.05
2023-05-07T09:05:13.035Z,4.05
2023-05-07T09:08:06.550Z,4.10
2023-05-07T09:10:51.534Z,4.20
2023-05-07T09:13:20.194Z,4.28
2023-05-07T09:15:48.844Z,4.07
2023-05-07T09:18:29.605Z,4.10
2023-05-07T09:21:20.404Z,3.70
2023-05-07T09:23:51.166Z,4.25
2023-05-07T09:26:22.165Z,4.43
2023-05-07T09:28:51.289Z,3.40
2023-05-07T09:32:06.335Z,3.92
2023-05-07T09:34:37.175Z,4.07
2023-05-07T09:37:06.918Z,4.25
2023-05-07T09:39:42.121Z,4.05
2023-05-07T09:42:12.409Z,3.95
2023-05-07T09:44:54.662Z,3.88
2023-05-07T09:47:35.666Z,4.07
2023-05-07T09:50:16.488Z,3.58
2023-05-07T09:52:55.066Z,4.20
2023-05-07T09:55:45.526Z,3.70
2023-05-07T09:58:24.540Z,3.90
2023-05-07T10:01:05.304Z,3.60
2023-05-07T10:03:42.549Z,3.60
2023-05-07T10:06:15.792Z,3.83
2023-05-07T10:08:49.415Z,4.05
2023-05-07T10:11:29.244Z,3.90
2023-05-07T10:13:59.462Z,3.95
2023-05-07T10:16:44.752Z,3.80
2023-05-07T10:19:21.540Z,4.38
2023-05-07T10:21:58.274Z,3.33
2023-05-07T10:24:29.418Z,3.10
2023-05-07T10:26:59.737Z,3.25
2023-05-07T10:29:34.028Z,3.08
2023-05-07T10:32:07.433Z,3.20
2023-05-07T10:34:41.575Z,3.40
2023-05-07T10:37:13.644Z,3.20
2023-05-07T10:39:43.198Z,3.63
2023-05-07T10:42:13.061Z,3.45
2023-05-07T10:44:49.879Z,2.92
2023-05-07T10:47:28.065Z,2.95
2023-05-07T10:50:15.259Z,3.28
2023-05-07T10:52:45.570Z,2.72
2023-05-07T10:55:23.182Z,3.42
2023-05-07T10:58:30.063Z,3.25
2023-05-07T11:01:20.286Z,3.53
2023-05-07T11:04:03.599Z,3.63
2023-05-07T11:06:35.457Z,3.28
2023-05-07T11:09:09.450Z,3.05
2023-05-07T11:11:49.126Z,2.92
2023-05-07T11:14:48.615Z,2.80
2023-05-07T11:17:28.160Z,2.80
2023-05-07T11:20:05.434Z,2.60
2023-05-07T11:23:00.094Z,2.50
2023-05-07T11:25:40.510Z,2.80
2023-05-07T11:28:27.919Z,2.72
2023-05-07T11:31:23.378Z,3.00
2023-05-07T11:34:32.051Z,3.28
2023-05-07T11:37:27.231Z,2.70
2023-05-07T11:40:18.654Z,2.67
2023-05-07T11:43:02.729Z,3.47
2023-05-07T11:45:44.230Z,2.80
2023-05-07T11:48:22.126Z,2.90
2023-05-07T11:51:06.745Z,2.85
2023-05-07T11:53:45.731Z,2.70
2023-05-07T11:56:20.403Z,2.72
2023-05-07T11:59:03.256Z,2.60
2023-05-07T12:01:33.746Z,2.50
2023-05-07T12:04:18.881Z,2.33
2023-05-07T12:07:05.880Z,1.90
2023-05-07T12:09:49.636Z,2.30
2023-05-07T12:12:42.304Z,2.42
2023-05-07T12:15:34.732Z,2.45
2023-05-07T12:18:29.408Z,2.60
2023-05-07T12:20:58.147Z,2.72
2023-05-07T12:23:43.119Z,2.40
2023-05-07T12:26:19.262Z,2.58
2023-05-07T12:29:05.781Z,2.60
2023-05-07T12:31:51.648Z,2.72
2023-05-07T12:34:29.103Z,2.50
2023-05-07T12:37:07.936Z,2.33
2023-05-07T12:39:49.651Z,2.40
2023-05-07T12:42:31.409Z,2.33
2023-05-07T12:45:15.029Z,2.72
2023-05-07T12:47:46.842Z,2.10
2023-05-07T12:50:16.447Z,2.40
2023-05-07T12:52:45.866Z,2.20
2023-05-07T12:55:22.413Z,2.28
2023-05-07T12:57:52.413Z,2.10
2023-05-07T13:00:20.920Z,2.35
2023-05-07T13:02:49.847Z,2.53
2023-05-07T13:05:18.470Z,2.33
2023-05-07T13:08:02.337Z,2.35
2023-05-07T13:10:36.938Z,2.30
2023-05-07T13:13:05.869Z,2.80
2023-05-07T13:15:37.214Z,2.25
2023-05-07T13:18:08.583Z,2.38
2023-05-07T13:20:39.421Z,2.20
2023-05-07T13:23:12.303Z,2.00
2023-05-07T13:25:53.003Z,2.25
2023-05-07T13:28:29.679Z,2.22
2023-05-07T13:31:05.456Z,2.00
2023-05-07T13:33:37.885Z,2.20
2023-05-07T13:36:06.821Z,2.08
2023-05-07T13:38:35.448Z,1.85
2023-05-07T13:41:10.418Z,2.70
2023-05-07T13:43:38.826Z,2.88
2023-05-07T13:46:07.398Z,2.70
2023-05-07T13:48:35.834Z,2.92
2023-05-07T13:51:04.332Z,3.00
2023-05-07T13:53:32.689Z,2.92
2023-05-07T13:56:08.756Z,3.03
2023-05-07T13:58:51.997Z,2.95
2023-05-07T14:01:25.179Z,3.00
2023-05-07T14:03:53.764Z,2.65
2023-05-07T14:06:22.804Z,3.20
2023-05-07T14:08:54.505Z,3.00
2023-05-07T14:11:23.194Z,3.03
2023-05-07T14:13:53.001Z,2.92
2023-05-07T14:16:22.142Z,3.13
2023-05-07T14:18:50.513Z,2.92
2023-05-07T14:21:21.879Z,2.90
2023-05-07T14:23:57.417Z,2.85
2023-05-07T14:26:27.891Z,2.85
2023-05-07T14:29:04.840Z,3.03
2023-05-07T14:31:42.383Z,3.00
2023-05-07T14:34:15.619Z,3.50
2023-05-07T14:36:48.016Z,3.17
2023-05-07T14:39:19.191Z,3.20
2023-05-07T14:41:55.834Z,2.85
2023-05-07T14:44:26.055Z,2.58
2023-05-07T14:47:02.357Z,2.60
2023-05-07T14:49:31.592Z,2.72
2023-05-07T14:52:01.257Z,2.60
2023-05-07T14:54:29.949Z,2.80
2023-05-07T14:57:06.132Z,3.10
2023-05-07T14:59:48.026Z,2.97
2023-05-07T15:02:21.973Z,2.65
2023-05-07T15:07:37.494Z,2.55
2023-05-07T15:10:08.486Z,2.50
2023-05-07T15:12:37.139Z,2.40
2023-05-07T15:15:11.666Z,2.58
2023-05-07T15:17:40.489Z,2.53
2023-05-07T15:20:10.855Z,2.40
2023-05-07T15:22:40.873Z,2.60
2023-05-07T15:25:15.304Z,2.55
2023-05-07T15:27:45.593Z,3.25
2023-05-07T15:30:16.807Z,3.05
2023-05-07T15:32:45.218Z,2.85
2023-05-07T15:35:13.838Z,3.20
2023-05-07T15:37:42.516Z,3.10
2023-05-07T15:40:11.630Z,3.03
2023-05-07T15:42:39.954Z,2.90
2023-05-07T15:45:09.060Z,3.10
2023-05-07T15:47:39.081Z,2.83
2023-05-07T15:50:08.141Z,3.35
2023-05-07T15:52:36.480Z,2.72
2023-05-07T15:55:06.368Z,2.90
2023-05-07T15:57:34.724Z,2.95
2023-05-07T16:00:03.851Z,3.15
2023-05-07T16:02:42.569Z,2.83
2023-05-07T16:05:12.687Z,3.20
2023-05-07T16:07:44.037Z,3.17
2023-05-07T16:10:13.206Z,3.47
2023-05-07T16:12:41.778Z,3.20
2023-05-07T16:15:10.611Z,3.30
2023-05-07T16:17:39.111Z,3.28
2023-05-07T16:20:12.852Z,3.08
2023-05-07T16:22:41.286Z,3.20
2023-05-07T16:25:10.380Z,3.30
2023-05-07T16:27:38.791Z,3.13
2023-05-07T16:30:08.269Z,3.30
2023-05-07T16:32:36.883Z,3.55
2023-05-07T16:35:05.329Z,3.10
2023-05-07T16:37:34.970Z,3.67
2023-05-07T16:40:07.048Z,3.58
2023-05-07T16:42:35.405Z,5.95
2023-05-07T16:45:04.393Z,7.03
2023-05-07T16:47:33.543Z,4.57
2023-05-07T16:50:01.963Z,4.30
2023-05-07T16:52:31.586Z,4.38
2023-05-07T16:55:01.808Z,4.93
2023-05-07T16:57:30.948Z,4.03
2023-05-07T16:59:59.954Z,4.40
2023-05-07T17:02:28.430Z,3.80
2023-05-07T17:04:56.836Z,3.50
2023-05-07T17:07:27.063Z,4.32
2023-05-07T17:09:55.492Z,3.38
2023-05-07T17:12:25.180Z,3.03
2023-05-07T17:14:53.692Z,2.78
2023-05-07T17:17:22.829Z,3.03
2023-05-07T17:19:51.170Z,2.92
2023-05-07T17:22:19.531Z,2.85
2023-05-07T17:24:47.878Z,2.28
2023-05-07T17:27:16.188Z,2.42
2023-05-07T17:29:46.032Z,2.47
2023-05-07T17:32:14.655Z,2.72
2023-05-07T17:34:43.146Z,2.40
2023-05-07T17:37:11.815Z,2.13
2023-05-07T17:39:40.292Z,2.03
2023-05-07T17:42:08.714Z,2.10
2023-05-07T17:44:37.297Z,2.38
2023-05-07T17:47:07.409Z,2.47
2023-05-07T17:49:37.216Z,2.33
2023-05-07T17:52:05.704Z,2.15
2023-05-07T17:54:34.604Z,2.40
2023-05-07T17:57:03.254Z,2.75
2023-05-07T17:59:31.540Z,2.58
2023-05-07T18:01:59.815Z,2.15
2023-05-07T18:04:29.525Z,2.30
2023-05-07T18:06:57.902Z,2.45
2023-05-07T18:09:26.244Z,2.45
2023-05-07T18:11:54.613Z,2.20
2023-05-07T18:14:25.861Z,2.42
2023-05-07T18:16:54.732Z,2.53
2023-05-07T18:19:23.074Z,2.10
2023-05-07T18:21:55.113Z,2.30
2023-05-07T18:24:23.513Z,2.70
2023-05-07T18:26:51.810Z,2.35
2023-05-07T18:29:20.340Z,2.85
2023-05-07T18:31:48.742Z,3.00
2023-05-07T18:34:20.285Z,3.05
2023-05-07T18:36:48.691Z,3.50
2023-05-07T18:39:18.353Z,2.83
2023-05-07T18:41:48.715Z,2.80
2023-05-07T18:44:17.144Z,2.60
2023-05-07T18:46:47.722Z,2.80
2023-05-07T18:49:16.143Z,2.60
2023-05-07T18:51:45.059Z,3.03
2023-05-07T18:54:13.556Z,2.20
2023-05-07T18:56:45.219Z,2.13
2023-05-07T18:59:19.008Z,2.50
2023-05-07T19:01:47.578Z,2.17
2023-05-07T19:04:18.283Z,2.15
2023-05-07T19:06:46.809Z,2.63
2023-05-07T19:09:15.319Z,2.60
2023-05-07T19:11:45.018Z,2.70
2023-05-07T19:14:13.365Z,2.53
2023-05-07T19:16:41.706Z,3.05
2023-05-07T19:19:10.151Z,3.22
2023-05-07T19:21:38.485Z,3.80
2023-05-07T19:24:07.239Z,3.35
2023-05-07T19:26:35.835Z,3.30
2023-05-07T19:31:38.441Z,3.42
2023-05-07T19:34:07.039Z,3.28
2023-05-07T19:36:35.386Z,3.65
2023-05-07T19:39:03.783Z,3.20
2023-05-07T19:41:32.186Z,3.58
2023-05-07T19:44:00.665Z,3.55
2023-05-07T19:46:30.486Z,3.50
2023-05-07T19:48:58.897Z,3.85
2023-05-07T19:51:28.707Z,4.18
2023-05-07T19:53:57.184Z,3.80
2023-05-07T19:56:25.558Z,3.20
2023-05-07T19:58:53.874Z,5.60
2023-05-07T20:01:22.844Z,3.70
2023-05-07T20:03:52.972Z,3.55
2023-05-07T20:06:24.959Z,3.85
2023-05-07T20:09:01.019Z,3.55
2023-05-07T20:11:29.697Z,3.60
2023-05-07T20:13:57.979Z,3.50
2023-05-07T20:16:28.505Z,3.03
2023-05-07T20:18:58.264Z,3.50
2023-05-07T20:21:26.618Z,3.40
2023-05-07T20:23:54.936Z,4.00
2023-05-07T20:26:23.571Z,3.40
2023-05-07T20:28:52.201Z,3.22
2023-05-07T20:31:21.116Z,3.55
2023-05-07T20:33:52.272Z,3.60
2023-05-07T20:36:24.880Z,3.80
2023-05-07T20:38:53.262Z,3.97
2023-05-07T20:41:24.561Z,3.85
2023-05-07T20:43:52.937Z,3.85
2023-05-07T20:46:22.440Z,3.85
2023-05-07T20:48:51.571Z,3.88
2023-05-07T20:51:19.842Z,4.63
2023-05-07T20:53:49.569Z,3.80
2023-05-07T20:56:17.927Z,4.10
2023-05-07T20:58:46.204Z,4.03
2023-05-07T21:01:14.657Z,4.03
2023-05-07T21:03:43.284Z,4.10
2023-05-07T21:06:11.766Z,4.32
2023-05-07T21:08:40.125Z,4.22
2023-05-07T21:11:09.980Z,4.43
2023-05-07T21:13:38.800Z,4.72
2023-05-07T21:16:07.181Z,4.68
2023-05-07T21:18:35.733Z,4.70
2023-05-07T21:21:04.037Z,4.65
2023-05-07T21:23:32.291Z,4.68
2023-05-07T21:26:00.537Z,4.50
2023-05-07T21:28:30.156Z,4.75
